Time;durP1;ratioP1;P1;durP2;ratioP2;P2;SDS_P1;SDS_P2;PMS_P1;PMS_P2;Temp;Humidity;BMP_temperature;BMP_pressure;BME280_temperature;BME280_humidity;BME280_pressure;Samples;Min_cycle;Max_cycle;Signal;HPM_P1;HPM_P2
2022/01/30 00:01:40;;;;;;;22.73;4.60;;;6.50;99.90;;;;;;4938334;28;20307;-60
2022/01/30 00:04:07;;;;;;;30.77;5.10;;;6.50;99.90;;;;;;4966815;28;20302;-60
2022/01/30 00:06:34;;;;;;;30.10;6.33;;;6.50;99.90;;;;;;4953681;28;20211;-59
2022/01/30 00:09:00;;;;;;;28.17;4.63;;;6.60;99.90;;;;;;4957921;28;20207;-59
2022/01/30 00:11:32;;;;;;;19.17;3.57;;;6.50;99.90;;;;;;4949825;28;22536;-59
2022/01/30 00:14:01;;;;;;;22.53;4.47;;;6.50;99.90;;;;;;4954080;28;20214;-60
2022/01/30 00:16:32;;;;;;;18.37;4.10;;;6.60;99.90;;;;;;4956878;28;20696;-60
2022/01/30 00:19:07;;;;;;;21.03;4.33;;;6.60;99.90;;;;;;4953494;28;20235;-60
2022/01/30 00:21:38;;;;;;;25.97;5.13;;;6.60;99.90;;;;;;4966213;28;20290;-59
2022/01/30 00:24:10;;;;;;;18.70;4.47;;;6.60;99.90;;;;;;4981330;28;20216;-60
2022/01/30 00:26:39;;;;;;;20.60;4.17;;;6.60;99.90;;;;;;4951745;28;20208;-60
2022/01/30 00:29:06;;;;;;;27.00;4.17;;;6.60;99.90;;;;;;4951759;28;20299;-60
2022/01/30 00:31:34;;;;;;;19.80;4.43;;;6.60;99.90;;;;;;4946893;28;20209;-59
2022/01/30 00:34:03;;;;;;;21.23;3.67;;;6.60;99.90;;;;;;4953985;28;20791;-59
2022/01/30 00:36:31;;;;;;;32.07;5.57;;;6.60;99.90;;;;;;4964252;28;20305;-60
2022/01/30 00:38:58;;;;;;;29.40;5.90;;;6.60;99.90;;;;;;4955284;28;20228;-60
2022/01/30 00:41:25;;;;;;;17.93;3.70;;;6.60;99.90;;;;;;4978936;28;20208;-59
2022/01/30 00:43:52;;;;;;;18.43;4.00;;;6.70;99.90;;;;;;4938589;28;20381;-59
2022/01/30 00:46:19;;;;;;;17.30;4.50;;;6.70;99.90;;;;;;4970241;28;20205;-59
2022/01/30 00:48:46;;;;;;;23.63;4.20;;;6.70;99.90;;;;;;4945891;28;20207;-60
2022/01/30 00:51:16;;;;;;;15.20;4.10;;;6.70;99.90;;;;;;4970529;28;20196;-59
2022/01/30 00:53:43;;;;;;;18.77;3.80;;;6.70;99.90;;;;;;4956823;28;20212;-59
2022/01/30 00:56:11;;;;;;;17.47;4.03;;;6.70;99.90;;;;;;4966950;28;20297;-59
2022/01/30 00:58:38;;;;;;;23.00;4.80;;;6.70;99.90;;;;;;4950737;28;20211;-60
2022/01/30 01:01:07;;;;;;;23.47;3.63;;;6.60;99.90;;;;;;4944718;28;20234;-60
2022/01/30 01:03:34;;;;;;;17.83;3.53;;;6.60;99.90;;;;;;4948873;28;20209;-60
2022/01/30 01:06:04;;;;;;;18.63;3.90;;;6.70;99.90;;;;;;4943682;28;20211;-60
2022/01/30 01:08:45;;;;;;;24.37;4.63;;;6.70;99.90;;;;;;4954551;28;20195;-60
2022/01/30 01:11:29;;;;;;;22.33;4.43;;;6.60;99.90;;;;;;4967199;28;20705;-60
2022/01/30 01:14:14;;;;;;;19.77;3.73;;;6.60;99.90;;;;;;4951899;28;21163;-60
2022/01/30 01:25:08;;;;;;;15.60;3.67;;;6.50;99.90;;;;;;4887864;28;20206;-59
2022/01/30 01:27:35;;;;;;;18.00;2.87;;;6.60;99.90;;;;;;4924517;28;20783;-59
2022/01/30 01:30:02;;;;;;;19.90;3.20;;;6.60;99.90;;;;;;4937802;28;20238;-59
2022/01/30 01:32:29;;;;;;;19.23;3.43;;;6.60;99.90;;;;;;4936718;28;20780;-59
2022/01/30 01:34:56;;;;;;;17.40;3.63;;;6.60;99.90;;;;;;4943610;28;20220;-59
2022/01/30 01:37:23;;;;;;;16.10;4.20;;;6.50;99.90;;;;;;4950781;28;20825;-59
2022/01/30 01:39:50;;;;;;;15.60;4.07;;;6.40;99.90;;;;;;4962169;28;21235;-60
2022/01/30 01:42:18;;;;;;;13.77;2.63;;;6.30;99.90;;;;;;4955800;28;20704;-59
2022/01/30 01:44:49;;;;;;;16.13;2.87;;;6.30;99.90;;;;;;4949852;28;20201;-59
2022/01/30 01:47:19;;;;;;;10.20;2.90;;;6.10;99.90;;;;;;4951455;28;21692;-59
2022/01/30 01:49:49;;;;;;;18.30;3.67;;;6.10;99.90;;;;;;4925611;28;20219;-60
2022/01/30 01:52:21;;;;;;;24.10;4.97;;;6.10;99.90;;;;;;4962710;28;20208;-59
2022/01/30 01:54:52;;;;;;;20.77;4.37;;;6.20;99.90;;;;;;4953305;28;20214;-59
2022/01/30 01:57:21;;;;;;;19.97;3.60;;;6.30;99.90;;;;;;4953220;28;20300;-59
2022/01/30 01:59:49;;;;;;;19.40;4.30;;;6.30;99.90;;;;;;4955023;28;20463;-59
2022/01/30 02:02:16;;;;;;;19.50;3.77;;;6.40;99.90;;;;;;4946482;28;20871;-59
2022/01/30 02:04:45;;;;;;;25.73;4.87;;;6.40;99.90;;;;;;4949539;28;20330;-59
2022/01/30 02:10:00;;;;;;;18.43;4.73;;;6.50;99.90;;;;;;4946467;28;20239;-59
2022/01/30 02:12:36;;;;;;;17.30;4.07;;;6.50;99.90;;;;;;4952306;28;20685;-59
2022/01/30 02:15:18;;;;;;;26.07;4.87;;;6.60;99.90;;;;;;4971074;28;21144;-60
2022/01/30 02:26:14;;;;;;;27.03;4.93;;;6.20;99.90;;;;;;4892354;28;20237;-59
2022/01/30 02:28:41;;;;;;;32.47;5.47;;;6.20;99.90;;;;;;4929022;28;20306;-59
2022/01/30 02:31:12;;;;;;;18.57;4.60;;;6.20;99.90;;;;;;4970034;28;20311;-59
2022/01/30 02:33:41;;;;;;;22.47;5.10;;;6.30;99.90;;;;;;4939995;28;20355;-59
2022/01/30 02:36:08;;;;;;;21.97;4.47;;;6.30;99.90;;;;;;4948644;28;20210;-59
2022/01/30 02:38:36;;;;;;;22.43;5.20;;;6.40;99.90;;;;;;4974782;28;20196;-59
2022/01/30 02:41:03;;;;;;;22.00;4.50;;;6.40;99.90;;;;;;4981292;28;20326;-59
2022/01/30 02:43:35;;;;;;;18.97;4.53;;;6.40;99.90;;;;;;4961228;28;20211;-60
2022/01/30 02:46:08;;;;;;;24.03;4.83;;;6.50;99.90;;;;;;4970532;28;20208;-60
2022/01/30 02:48:48;;;;;;;28.23;4.93;;;6.50;99.90;;;;;;4944723;28;20211;-60
2022/01/30 02:51:17;;;;;;;29.10;5.47;;;6.50;99.90;;;;;;4945529;28;20246;-60
2022/01/30 02:53:55;;;;;;;20.43;4.60;;;6.60;99.90;;;;;;4969958;28;20219;-60
2022/01/30 02:56:22;;;;;;;19.03;4.33;;;6.60;99.90;;;;;;4964004;28;20202;-60
2022/01/30 02:58:49;;;;;;;20.77;5.93;;;6.60;99.90;;;;;;4954819;28;20212;-60
2022/01/30 03:01:16;;;;;;;20.13;3.97;;;6.60;99.90;;;;;;4969810;28;20255;-60
2022/01/30 03:03:43;;;;;;;15.03;3.90;;;6.70;99.90;;;;;;4947265;28;20306;-60
2022/01/30 03:06:10;;;;;;;19.83;4.73;;;6.20;99.90;;;;;;4955668;28;20208;-59
2022/01/30 03:08:37;;;;;;;28.63;5.03;;;5.80;99.90;;;;;;4961191;28;20203;-60
2022/01/30 03:11:06;;;;;;;25.27;4.50;;;5.70;99.90;;;;;;4966014;28;20199;-60
2022/01/30 03:13:33;;;;;;;26.97;5.03;;;5.80;99.90;;;;;;4958391;28;20298;-60
2022/01/30 03:16:03;;;;;;;23.27;4.37;;;5.80;99.90;;;;;;4968618;28;20315;-60
2022/01/30 03:21:52;;;;;;;17.03;3.73;;;6.00;99.90;;;;;;4966936;28;20757;-60
2022/01/30 03:24:19;;;;;;;28.03;5.27;;;6.10;99.90;;;;;;4955253;28;20204;-60
2022/01/30 03:26:48;;;;;;;25.57;4.73;;;6.20;99.90;;;;;;4945970;28;23882;-60
2022/01/30 03:29:14;;;;;;;14.00;3.63;;;6.20;99.90;;;;;;4960352;28;20210;-60
2022/01/30 03:31:42;;;;;;;18.63;4.77;;;6.20;99.90;;;;;;4961640;28;20208;-60
2022/01/30 03:34:11;;;;;;;29.43;6.23;;;6.30;99.90;;;;;;4952725;28;20195;-60
2022/01/30 03:36:39;;;;;;;26.43;3.93;;;6.20;99.90;;;;;;4950489;28;20224;-60
2022/01/30 03:39:06;;;;;;;24.70;5.30;;;6.30;99.90;;;;;;4946972;28;20207;-60
2022/01/30 03:41:33;;;;;;;28.03;4.63;;;6.30;99.90;;;;;;4939155;28;20231;-57
2022/01/30 03:44:01;;;;;;;22.07;4.53;;;6.30;99.90;;;;;;4950670;28;20204;-58
2022/01/30 03:46:28;;;;;;;27.50;5.13;;;6.30;99.90;;;;;;4974270;28;20200;-58
2022/01/30 03:48:56;;;;;;;19.23;4.53;;;6.30;99.90;;;;;;4982085;28;20196;-58
2022/01/30 03:51:23;;;;;;;17.27;5.00;;;6.30;99.90;;;;;;4952988;28;20215;-58
2022/01/30 03:53:50;;;;;;;21.83;4.23;;;6.20;99.90;;;;;;4959214;28;21151;-59
2022/01/30 03:56:17;;;;;;;23.23;4.97;;;6.20;99.90;;;;;;4959075;28;20669;-59
2022/01/30 03:58:44;;;;;;;17.23;3.60;;;6.30;99.90;;;;;;4942514;28;20521;-59
2022/01/30 04:01:12;;;;;;;17.37;3.53;;;6.20;99.90;;;;;;4974126;28;20227;-60
2022/01/30 04:03:39;;;;;;;26.03;4.93;;;6.30;99.90;;;;;;4980728;28;20227;-60
2022/01/30 04:06:09;;;;;;;22.60;4.27;;;6.20;99.90;;;;;;4949026;28;20209;-60
2022/01/30 04:08:36;;;;;;;19.80;4.73;;;6.20;99.90;;;;;;4951551;28;20219;-60
2022/01/30 04:11:03;;;;;;;26.60;4.40;;;6.30;99.90;;;;;;4972293;28;20200;-60
2022/01/30 04:13:31;;;;;;;24.07;4.13;;;6.30;99.90;;;;;;4959249;28;20229;-60
2022/01/30 04:15:58;;;;;;;29.83;4.83;;;6.30;99.90;;;;;;4957624;28;20196;-60
2022/01/30 04:18:27;;;;;;;23.97;5.33;;;6.40;99.90;;;;;;4957571;28;20249;-60
2022/01/30 04:20:54;;;;;;;23.27;4.43;;;6.30;99.90;;;;;;4968951;28;20328;-60
2022/01/30 04:23:21;;;;;;;30.97;5.57;;;6.30;99.90;;;;;;4943414;28;20204;-58
2022/01/30 04:25:48;;;;;;;28.37;6.57;;;6.30;99.90;;;;;;4971757;28;20223;-58
2022/01/30 04:28:16;;;;;;;32.67;5.20;;;6.30;99.90;;;;;;4949935;28;20234;-58
2022/01/30 04:30:44;;;;;;;29.37;5.97;;;6.20;99.90;;;;;;4962125;28;20624;-57
2022/01/30 04:33:11;;;;;;;35.43;5.27;;;6.20;99.90;;;;;;4962370;28;21019;-57
2022/01/30 04:35:40;;;;;;;29.60;5.97;;;6.20;99.90;;;;;;4974111;28;20199;-58
2022/01/30 04:38:18;;;;;;;25.37;3.77;;;6.10;99.90;;;;;;4957330;28;20212;-58
2022/01/30 04:52:20;;;;;;;16.10;3.77;;;6.10;99.90;;;;;;4970470;28;21028;-57
2022/01/30 04:57:52;;;;;;;17.80;3.67;;;6.00;99.90;;;;;;4949008;28;20209;-57
2022/01/30 05:00:31;;;;;;;20.37;4.73;;;6.00;99.90;;;;;;4974318;28;20242;-58
2022/01/30 05:03:07;;;;;;;30.63;5.00;;;6.00;99.90;;;;;;4967478;28;20695;-58
2022/01/30 05:05:54;;;;;;;32.10;4.90;;;6.00;99.90;;;;;;4970274;28;20576;-58
2022/01/30 05:08:23;;;;;;;24.50;5.47;;;6.10;99.90;;;;;;4965083;28;20317;-57
2022/01/30 05:10:50;;;;;;;29.97;5.03;;;6.00;99.90;;;;;;4953304;28;20262;-58
2022/01/30 05:13:21;;;;;;;30.70;5.63;;;6.00;99.90;;;;;;4960008;28;20235;-57
2022/01/30 05:15:48;;;;;;;31.07;6.53;;;6.00;99.90;;;;;;4965193;28;20669;-58
2022/01/30 05:18:19;;;;;;;29.80;5.70;;;6.00;99.90;;;;;;4962662;28;20296;-58
2022/01/30 05:20:46;;;;;;;22.63;4.63;;;6.00;99.90;;;;;;4966048;28;20227;-58
2022/01/30 05:23:14;;;;;;;31.13;4.63;;;5.90;99.90;;;;;;4973160;28;20286;-58
2022/01/30 05:25:42;;;;;;;39.40;5.60;;;5.90;99.90;;;;;;4942217;28;21039;-57
2022/01/30 05:28:10;;;;;;;19.07;4.47;;;5.90;99.90;;;;;;4948206;28;20204;-58
2022/01/30 05:30:38;;;;;;;33.57;6.33;;;5.90;99.90;;;;;;4957064;28;20210;-58
2022/01/30 05:33:06;;;;;;;21.87;4.47;;;5.90;99.90;;;;;;4956271;28;20231;-58
2022/01/30 05:35:34;;;;;;;30.17;6.37;;;5.90;99.90;;;;;;4976227;28;20207;-58
2022/01/30 05:38:01;;;;;;;27.50;4.93;;;5.90;99.90;;;;;;4961336;28;20195;-58
2022/01/30 05:40:28;;;;;;;29.93;5.13;;;5.90;99.90;;;;;;4943674;28;20219;-58
2022/01/30 05:42:57;;;;;;;26.00;5.03;;;5.90;99.90;;;;;;4954742;28;20289;-58
2022/01/30 05:45:30;;;;;;;23.50;5.03;;;6.00;99.90;;;;;;4946817;28;20215;-58
2022/01/30 05:48:01;;;;;;;30.80;4.40;;;6.00;99.90;;;;;;4949789;28;20208;-58
2022/01/30 05:50:29;;;;;;;20.30;5.47;;;6.00;99.90;;;;;;4967037;28;20207;-57
2022/01/30 05:52:56;;;;;;;22.23;5.17;;;6.00;99.90;;;;;;4960377;28;20205;-58
2022/01/30 05:55:23;;;;;;;22.50;5.13;;;6.00;99.90;;;;;;4952856;28;20205;-58
2022/01/30 05:57:50;;;;;;;25.20;5.47;;;6.00;99.90;;;;;;4949047;28;20199;-58
2022/01/30 06:00:18;;;;;;;17.27;4.70;;;6.10;99.90;;;;;;4954370;28;20214;-58
2022/01/30 06:02:47;;;;;;;23.50;4.33;;;6.10;99.90;;;;;;4940591;28;20577;-57
2022/01/30 06:05:16;;;;;;;18.50;4.03;;;6.10;99.90;;;;;;4966039;28;20204;-58
2022/01/30 06:07:50;;;;;;;19.33;3.73;;;6.10;99.90;;;;;;4962324;28;20744;-57
2022/01/30 06:10:17;;;;;;;17.17;4.07;;;6.00;99.90;;;;;;4968745;28;20231;-58
2022/01/30 06:12:45;;;;;;;28.77;4.13;;;6.00;99.90;;;;;;4929276;28;20707;-57
2022/01/30 06:15:13;;;;;;;25.50;3.97;;;5.90;99.90;;;;;;4959332;28;20211;-58
2022/01/30 06:17:42;;;;;;;23.47;4.07;;;5.90;99.90;;;;;;4961796;28;20212;-57
2022/01/30 06:20:09;;;;;;;16.57;3.57;;;5.80;99.90;;;;;;4960366;28;20204;-57
2022/01/30 06:22:37;;;;;;;13.77;3.40;;;5.90;99.90;;;;;;4945394;28;21801;-57
2022/01/30 06:25:04;;;;;;;16.00;3.57;;;5.80;99.90;;;;;;4971738;28;20627;-57
2022/01/30 06:27:32;;;;;;;22.67;4.17;;;5.80;99.90;;;;;;4934265;28;20241;-57
2022/01/30 06:29:59;;;;;;;22.33;4.57;;;5.80;99.90;;;;;;4961898;28;20199;-57
2022/01/30 06:32:26;;;;;;;13.67;3.37;;;5.80;99.90;;;;;;4951142;28;20285;-57
2022/01/30 06:34:55;;;;;;;18.93;3.83;;;5.70;99.90;;;;;;4934638;28;20318;-57
2022/01/30 06:37:22;;;;;;;17.40;3.90;;;5.70;99.90;;;;;;4960426;28;20254;-57
2022/01/30 06:39:49;;;;;;;12.40;2.90;;;5.70;99.90;;;;;;4971871;28;20200;-57
2022/01/30 06:42:16;;;;;;;12.93;3.37;;;5.80;99.90;;;;;;4932340;28;20241;-58
2022/01/30 06:44:45;;;;;;;19.13;3.70;;;5.80;99.90;;;;;;4951299;28;21024;-57
2022/01/30 06:47:12;;;;;;;14.67;4.47;;;5.80;99.90;;;;;;4921488;28;20352;-58
2022/01/30 06:49:39;;;;;;;23.77;4.73;;;5.80;99.90;;;;;;4947488;28;20262;-58
2022/01/30 06:52:09;;;;;;;19.07;3.50;;;5.70;99.90;;;;;;4955109;28;20226;-57
2022/01/30 06:54:38;;;;;;;15.37;3.07;;;5.70;99.90;;;;;;4950151;28;20289;-58
2022/01/30 06:57:06;;;;;;;15.27;3.87;;;5.80;99.90;;;;;;4938267;28;20212;-58
2022/01/30 06:59:33;;;;;;;12.60;2.97;;;5.80;99.90;;;;;;4916893;28;24077;-57
2022/01/30 07:02:01;;;;;;;13.20;2.97;;;5.90;99.90;;;;;;4940539;28;20234;-57
2022/01/30 07:04:29;;;;;;;11.33;2.83;;;5.90;99.90;;;;;;4933479;28;20921;-57
2022/01/30 07:06:57;;;;;;;12.10;3.17;;;5.90;99.90;;;;;;4931416;28;20219;-58
2022/01/30 07:09:26;;;;;;;11.67;3.10;;;5.90;99.90;;;;;;4962810;28;20217;-57
2022/01/30 07:11:53;;;;;;;19.30;4.13;;;5.90;99.90;;;;;;4960421;28;21131;-57
2022/01/30 07:14:20;;;;;;;21.43;4.43;;;5.90;99.90;;;;;;4940724;28;20203;-57
2022/01/30 07:16:48;;;;;;;15.87;4.50;;;5.90;99.90;;;;;;4953206;28;20207;-57
2022/01/30 07:19:15;;;;;;;16.57;3.23;;;5.90;99.90;;;;;;4952524;28;21070;-57
2022/01/30 07:21:42;;;;;;;24.03;4.03;;;5.80;99.90;;;;;;4938439;28;20276;-57
2022/01/30 07:24:09;;;;;;;23.57;3.77;;;5.90;99.90;;;;;;4959886;28;20204;-58
2022/01/30 07:26:37;;;;;;;17.33;4.00;;;5.80;99.90;;;;;;4958072;28;20215;-57
2022/01/30 07:29:05;;;;;;;18.13;3.23;;;5.80;99.90;;;;;;4947275;28;20212;-58
2022/01/30 07:31:32;;;;;;;22.63;4.00;;;5.80;99.90;;;;;;4944525;28;20222;-57
2022/01/30 07:34:00;;;;;;;13.63;3.50;;;5.90;99.90;;;;;;4953136;28;20207;-57
2022/01/30 07:36:27;;;;;;;16.47;4.43;;;5.80;99.90;;;;;;4929355;28;20234;-57
2022/01/30 07:38:55;;;;;;;21.17;4.53;;;5.80;99.90;;;;;;4924287;28;20212;-60
2022/01/30 07:41:23;;;;;;;21.80;3.80;;;5.80;99.90;;;;;;4940069;28;20247;-61
2022/01/30 07:43:51;;;;;;;20.73;3.97;;;5.80;99.90;;;;;;4943596;28;20207;-61
2022/01/30 07:46:18;;;;;;;26.40;4.80;;;5.90;99.90;;;;;;4910792;28;20235;-61
2022/01/30 07:48:46;;;;;;;16.00;4.00;;;5.90;99.90;;;;;;4934659;28;20352;-60
2022/01/30 07:51:13;;;;;;;30.20;5.17;;;5.90;99.90;;;;;;4929215;28;20242;-60
2022/01/30 07:53:41;;;;;;;30.50;5.00;;;5.90;99.90;;;;;;4929807;28;20235;-59
2022/01/30 07:56:08;;;;;;;25.17;4.30;;;5.90;99.90;;;;;;4943250;28;20204;-60
2022/01/30 07:58:35;;;;;;;29.53;5.20;;;6.00;99.90;;;;;;4955698;28;20192;-60
2022/01/30 08:01:03;;;;;;;26.97;5.17;;;6.00;99.90;;;;;;4928925;28;20223;-59
2022/01/30 08:03:30;;;;;;;23.07;6.13;;;6.00;99.90;;;;;;4939013;28;20218;-60
2022/01/30 08:05:58;;;;;;;25.07;4.70;;;6.10;99.90;;;;;;4936962;28;20230;-61
2022/01/30 08:08:25;;;;;;;23.90;5.50;;;6.10;99.90;;;;;;4939617;28;20255;-62
2022/01/30 08:10:52;;;;;;;28.10;4.80;;;6.10;99.90;;;;;;4928979;28;20314;-60
2022/01/30 08:13:19;;;;;;;28.17;5.17;;;6.10;99.90;;;;;;4926893;28;20235;-60
2022/01/30 08:15:47;;;;;;;29.70;5.40;;;6.00;99.90;;;;;;4927258;28;20204;-60
2022/01/30 08:18:15;;;;;;;29.30;5.93;;;6.00;99.90;;;;;;4937040;28;20232;-60
2022/01/30 08:20:43;;;;;;;22.53;4.93;;;6.00;99.90;;;;;;4937838;28;20219;-61
2022/01/30 08:23:12;;;;;;;20.50;5.57;;;6.00;99.90;;;;;;4944044;28;20223;-60
2022/01/30 08:25:40;;;;;;;30.37;4.80;;;6.00;99.90;;;;;;4950899;28;20905;-60
2022/01/30 08:28:08;;;;;;;27.87;4.77;;;6.00;99.90;;;;;;4937476;28;20211;-59
2022/01/30 08:30:35;;;;;;;22.27;4.63;;;6.10;99.90;;;;;;4941389;28;20224;-59
2022/01/30 08:33:03;;;;;;;30.27;5.60;;;6.10;99.90;;;;;;4929777;28;20231;-60
2022/01/30 08:35:32;;;;;;;33.97;5.47;;;6.10;99.90;;;;;;4939937;28;20235;-60
2022/01/30 08:38:03;;;;;;;31.23;5.33;;;6.10;99.90;;;;;;4914969;28;20231;-60
2022/01/30 08:40:30;;;;;;;28.87;6.13;;;6.10;99.90;;;;;;4938652;28;20340;-60
2022/01/30 08:42:57;;;;;;;37.53;6.53;;;6.20;99.90;;;;;;4957333;28;20233;-59
2022/01/30 08:45:24;;;;;;;23.37;5.23;;;6.10;99.90;;;;;;4922852;28;20893;-57
2022/01/30 08:47:53;;;;;;;24.87;5.20;;;6.20;99.90;;;;;;4940377;28;20231;-56
2022/01/30 08:50:21;;;;;;;28.33;5.47;;;6.20;99.90;;;;;;4946152;28;20216;-57
2022/01/30 08:52:50;;;;;;;26.47;5.90;;;6.10;99.90;;;;;;4932475;28;20219;-57
2022/01/30 08:55:19;;;;;;;26.43;5.63;;;6.20;99.90;;;;;;4930545;28;20238;-57
2022/01/30 08:57:46;;;;;;;32.83;6.33;;;6.20;99.90;;;;;;4971150;28;20660;-56
2022/01/30 09:00:16;;;;;;;33.47;4.90;;;6.30;99.90;;;;;;4949807;28;20980;-56
2022/01/30 09:02:43;;;;;;;39.73;7.67;;;6.30;99.90;;;;;;4946350;28;20263;-56
2022/01/30 09:05:12;;;;;;;34.10;5.00;;;6.30;99.90;;;;;;4943082;28;20228;-57
2022/01/30 09:07:39;;;;;;;33.93;6.43;;;6.30;99.90;;;;;;4946260;28;20233;-59
2022/01/30 09:10:11;;;;;;;27.33;4.80;;;6.30;99.90;;;;;;4913527;28;20232;-59
2022/01/30 09:12:39;;;;;;;17.33;3.87;;;6.30;99.90;;;;;;4956345;28;20248;-59
2022/01/30 09:15:10;;;;;;;24.83;5.33;;;6.30;99.90;;;;;;4934718;28;20762;-59
2022/01/30 09:17:39;;;;;;;20.20;3.73;;;6.30;99.90;;;;;;4940054;28;20211;-59
2022/01/30 09:20:09;;;;;;;20.47;4.63;;;6.30;99.90;;;;;;4951438;28;20231;-59
2022/01/30 09:22:38;;;;;;;20.03;4.87;;;6.30;99.90;;;;;;4946792;28;20235;-59
2022/01/30 09:25:08;;;;;;;36.23;5.57;;;6.30;99.90;;;;;;4951159;28;20210;-59
2022/01/30 09:27:35;;;;;;;22.87;5.10;;;6.30;99.90;;;;;;4941302;28;20306;-59
2022/01/30 09:30:03;;;;;;;30.03;5.67;;;6.40;99.90;;;;;;4960998;28;20295;-59
2022/01/30 09:32:30;;;;;;;28.17;5.10;;;6.40;99.90;;;;;;4923190;28;20255;-59
2022/01/30 09:34:57;;;;;;;18.33;4.30;;;6.30;99.90;;;;;;4943349;28;20238;-59
2022/01/30 09:37:25;;;;;;;35.47;5.40;;;6.30;99.90;;;;;;4935846;28;20223;-59
2022/01/30 09:39:52;;;;;;;31.03;5.37;;;6.30;99.90;;;;;;4941538;28;20295;-59
2022/01/30 09:42:24;;;;;;;26.53;4.73;;;6.30;99.90;;;;;;4935342;28;20239;-59
2022/01/30 09:44:52;;;;;;;41.77;6.87;;;6.40;99.90;;;;;;4939668;28;20212;-59
2022/01/30 09:47:19;;;;;;;30.03;6.07;;;6.30;99.90;;;;;;4925537;28;20223;-63
2022/01/30 09:49:49;;;;;;;31.27;6.70;;;6.30;99.90;;;;;;4943035;28;21309;-59
2022/01/30 09:52:16;;;;;;;34.10;5.53;;;6.30;99.90;;;;;;4963187;28;20239;-59
2022/01/30 09:54:44;;;;;;;31.23;5.83;;;6.40;99.90;;;;;;4948248;28;20200;-59
2022/01/30 09:57:11;;;;;;;36.47;5.93;;;6.40;99.90;;;;;;4947961;28;20267;-60
2022/01/30 09:59:40;;;;;;;24.60;5.60;;;6.40;99.90;;;;;;4951382;28;20212;-58
2022/01/30 10:02:08;;;;;;;41.43;8.30;;;6.50;99.90;;;;;;4929933;23;20235;-58
2022/01/30 10:04:37;;;;;;;34.03;6.27;;;6.60;99.90;;;;;;4958125;28;20204;-60
2022/01/30 10:07:11;;;;;;;38.57;6.43;;;6.60;99.90;;;;;;4967656;28;20577;-59
2022/01/30 10:09:44;;;;;;;37.30;6.93;;;6.60;99.90;;;;;;4952642;28;20230;-60
2022/01/30 10:12:16;;;;;;;27.67;5.57;;;6.60;99.90;;;;;;4946312;28;20633;-59
2022/01/30 10:15:00;;;;;;;28.83;5.67;;;6.50;99.90;;;;;;4952451;28;20212;-58
2022/01/30 10:17:30;;;;;;;18.80;3.77;;;6.50;99.90;;;;;;4946429;28;20227;-58
2022/01/30 10:20:07;;;;;;;25.20;4.87;;;6.50;99.90;;;;;;4919387;28;20227;-60
2022/01/30 10:22:37;;;;;;;27.77;5.03;;;6.50;99.90;;;;;;4931936;28;20288;-60
2022/01/30 10:25:05;;;;;;;23.13;4.83;;;6.50;99.90;;;;;;4942638;28;20204;-60
2022/01/30 10:27:33;;;;;;;27.57;5.20;;;6.50;99.90;;;;;;4943658;28;20441;-60
2022/01/30 10:30:04;;;;;;;28.10;6.60;;;6.50;99.90;;;;;;4945312;28;20217;-60
2022/01/30 10:32:31;;;;;;;22.60;5.43;;;6.50;99.90;;;;;;4945241;28;20231;-60
2022/01/30 10:35:02;;;;;;;41.03;5.70;;;6.60;99.90;;;;;;4926701;28;20231;-61
2022/01/30 10:37:30;;;;;;;21.67;5.23;;;6.60;99.90;;;;;;4932707;28;20207;-60
2022/01/30 10:40:01;;;;;;;36.67;7.17;;;6.60;99.90;;;;;;4928743;28;20290;-60
2022/01/30 10:42:41;;;;;;;38.10;6.63;;;6.70;99.90;;;;;;4935400;28;20289;-59
2022/01/30 10:45:12;;;;;;;22.70;5.53;;;6.70;99.90;;;;;;4962869;28;20235;-59
2022/01/30 10:47:40;;;;;;;23.60;5.67;;;6.70;99.90;;;;;;4947232;28;20215;-59
2022/01/30 10:50:13;;;;;;;34.77;5.43;;;6.70;99.90;;;;;;4935700;28;20241;-60
2022/01/30 10:52:51;;;;;;;20.73;4.93;;;6.70;99.90;;;;;;4929714;28;20228;-59
2022/01/30 10:55:32;;;;;;;29.80;5.97;;;6.80;99.90;;;;;;4923325;28;20296;-59
2022/01/30 10:58:00;;;;;;;23.23;5.63;;;6.90;99.90;;;;;;4932957;28;20320;-59
2022/01/30 11:00:39;;;;;;;24.37;5.03;;;6.90;99.90;;;;;;4951859;28;20227;-59
2022/01/30 11:03:06;;;;;;;29.53;5.10;;;6.90;99.90;;;;;;4949828;28;20227;-59
2022/01/30 11:05:57;;;;;;;29.37;5.20;;;6.90;99.90;;;;;;4926479;28;20262;-59
2022/01/30 11:08:25;;;;;;;24.70;4.70;;;6.80;99.90;;;;;;4930687;28;20703;-60
2022/01/30 11:11:10;;;;;;;26.80;5.90;;;6.80;99.90;;;;;;4947983;28;20366;-59
2022/01/30 11:13:59;;;;;;;27.33;5.20;;;6.80;99.90;;;;;;4928043;28;20223;-59
2022/01/30 11:19:15;;;;;;;25.40;6.47;;;6.70;99.90;;;;;;4947428;28;21920;-59
2022/01/30 11:21:43;;;;;;;27.03;5.17;;;6.70;99.90;;;;;;4942033;28;20212;-59
2022/01/30 11:24:13;;;;;;;27.40;5.37;;;6.70;99.90;;;;;;4951775;28;20236;-59
2022/01/30 11:26:41;;;;;;;32.10;5.40;;;6.80;99.90;;;;;;4944122;28;20708;-59
2022/01/30 11:29:09;;;;;;;32.13;5.80;;;6.80;99.90;;;;;;4923322;28;20287;-59
2022/01/30 11:31:38;;;;;;;33.37;5.17;;;6.90;99.90;;;;;;4956114;28;20228;-59
2022/01/30 11:34:06;;;;;;;28.33;5.33;;;6.90;99.90;;;;;;4937419;28;21027;-59
2022/01/30 11:36:38;;;;;;;25.63;5.80;;;6.80;99.90;;;;;;4938572;28;20900;-59
2022/01/30 11:39:06;;;;;;;23.27;4.97;;;6.80;99.90;;;;;;4952954;28;20362;-59
2022/01/30 11:41:34;;;;;;;22.57;4.73;;;6.70;99.90;;;;;;4930481;28;20595;-59
2022/01/30 11:44:29;;;;;;;35.50;5.27;;;6.70;99.90;;;;;;4939826;28;20396;-59
2022/01/30 11:47:23;;;;;;;21.50;5.40;;;6.80;99.90;;;;;;4964806;28;20227;-59
2022/01/30 11:50:05;;;;;;;22.03;4.53;;;6.80;99.90;;;;;;4926764;28;20312;-60
2022/01/30 11:53:03;;;;;;;23.90;4.70;;;6.80;99.90;;;;;;4935631;28;20207;-59
2022/01/30 11:56:01;;;;;;;31.40;5.57;;;6.90;99.90;;;;;;4973785;28;20235;-59
2022/01/30 11:58:40;;;;;;;26.50;5.13;;;6.90;99.90;;;;;;4928401;28;20969;-59
2022/01/30 12:01:27;;;;;;;28.97;5.17;;;6.90;99.90;;;;;;4944703;28;20203;-59
2022/01/30 12:03:59;;;;;;;19.10;4.37;;;6.80;99.90;;;;;;4930480;28;21746;-60
2022/01/30 12:06:32;;;;;;;26.07;4.53;;;6.90;99.90;;;;;;4926079;28;20262;-60
2022/01/30 12:09:00;;;;;;;28.87;6.03;;;6.70;99.90;;;;;;4931982;28;20744;-60
2022/01/30 12:11:56;;;;;;;34.77;6.30;;;6.70;99.90;;;;;;4941089;28;20218;-60
2022/01/30 12:14:54;;;;;;;22.97;4.93;;;6.70;99.90;;;;;;4936067;28;20203;-60
2022/01/30 12:17:58;;;;;;;32.53;5.27;;;6.70;99.90;;;;;;4956680;28;20232;-59
2022/01/30 12:20:28;;;;;;;28.30;4.77;;;6.70;99.90;;;;;;4948418;28;20236;-59
2022/01/30 12:22:57;;;;;;;16.30;3.90;;;6.70;99.90;;;;;;4927400;28;20724;-59
2022/01/30 12:25:34;;;;;;;21.67;4.63;;;6.60;99.90;;;;;;4944010;28;20717;-59
2022/01/30 12:28:09;;;;;;;26.43;4.93;;;6.60;99.90;;;;;;4934983;28;20232;-59
2022/01/30 12:30:49;;;;;;;24.30;4.17;;;6.70;99.90;;;;;;4953830;28;20247;-59
2022/01/30 12:33:35;;;;;;;26.13;5.03;;;6.70;99.90;;;;;;4967287;28;20234;-59
2022/01/30 12:36:11;;;;;;;22.30;4.83;;;6.70;99.90;;;;;;4941553;28;20661;-60
2022/01/30 12:38:39;;;;;;;28.53;5.33;;;6.80;99.90;;;;;;4932484;28;20623;-59
2022/01/30 12:41:17;;;;;;;26.33;4.27;;;6.80;99.90;;;;;;4937072;28;20228;-60
2022/01/30 12:43:45;;;;;;;32.87;5.03;;;6.80;99.90;;;;;;4905190;28;20745;-60
2022/01/30 12:46:13;;;;;;;17.97;4.50;;;6.80;99.90;;;;;;4949325;28;20322;-59
2022/01/30 12:48:40;;;;;;;18.63;4.40;;;6.80;99.90;;;;;;4954850;28;20231;-59
2022/01/30 12:51:14;;;;;;;22.87;5.40;;;6.80;99.90;;;;;;4949520;28;20208;-59
2022/01/30 12:53:42;;;;;;;28.87;5.23;;;6.80;99.90;;;;;;4923848;28;20788;-59
2022/01/30 12:56:11;;;;;;;24.77;4.70;;;6.80;99.90;;;;;;4949996;28;20279;-59
2022/01/30 12:58:46;;;;;;;28.63;4.97;;;6.80;99.90;;;;;;4937575;28;20227;-59
2022/01/30 13:01:15;;;;;;;31.10;5.03;;;6.80;99.90;;;;;;4950628;28;20949;-58
2022/01/30 13:03:42;;;;;;;22.00;4.37;;;6.80;99.90;;;;;;4966256;28;20236;-59
2022/01/30 13:06:11;;;;;;;25.60;4.50;;;6.80;99.90;;;;;;4943390;28;20232;-60
2022/01/30 13:08:49;;;;;;;24.17;4.60;;;6.80;99.90;;;;;;4930247;28;20223;-59
2022/01/30 13:11:22;;;;;;;30.00;4.77;;;6.80;99.90;;;;;;4948308;28;20602;-59
2022/01/30 13:13:57;;;;;;;23.70;4.63;;;6.80;99.90;;;;;;4949866;28;21422;-59
2022/01/30 13:16:26;;;;;;;20.27;4.20;;;6.80;99.90;;;;;;4971855;28;20330;-59
2022/01/30 13:18:54;;;;;;;36.67;5.20;;;6.70;99.90;;;;;;4962320;28;20562;-59
2022/01/30 13:21:27;;;;;;;26.20;5.27;;;6.70;99.90;;;;;;4965278;28;20718;-60
2022/01/30 13:23:56;;;;;;;27.83;6.57;;;6.70;99.90;;;;;;4932362;28;20231;-58
2022/01/30 13:26:42;;;;;;;21.37;4.63;;;6.80;99.90;;;;;;4944303;28;20215;-58
2022/01/30 13:29:16;;;;;;;25.63;4.83;;;6.70;99.90;;;;;;4965797;28;20314;-59
2022/01/30 13:31:46;;;;;;;23.43;4.97;;;6.80;99.90;;;;;;4937452;28;20233;-59
2022/01/30 13:34:16;;;;;;;24.43;4.70;;;6.80;99.90;;;;;;4971262;28;20203;-59
2022/01/30 13:36:53;;;;;;;20.83;4.23;;;6.70;99.90;;;;;;4965135;28;20223;-59
2022/01/30 13:39:32;;;;;;;24.27;4.40;;;6.80;99.90;;;;;;4919851;28;20720;-59
2022/01/30 13:46:53;;;;;;;23.23;4.67;;;6.70;99.90;;;;;;4930005;28;20228;-59
2022/01/30 13:47:52;;;;;;;24.93;4.93;;;6.60;99.90;;;;;;4945186;28;20894;-58